sensor_id;sensor_type;location;lat;lon;timestamp;pressure;altitude;pressure_sealevel;temperature;humidity
21276;BME280;36472;52.170;20.884;2023-05-01T00:00:08;101040.81;;;8.32;60.25
21276;BME280;36472;52.170;20.884;2023-05-01T00:03:00;101045.34;;;8.29;60.37
21276;BME280;36472;52.170;20.884;2023-05-01T00:05:29;101042.16;;;8.22;59.63
21276;BME280;36472;52.170;20.884;2023-05-01T00:07:58;101053.47;;;8.22;60.41
21276;BME280;36472;52.170;20.884;2023-05-01T00:10:27;101048.34;;;8.19;60.39
21276;BME280;36472;52.170;20.884;2023-05-01T00:12:55;101046.81;;;8.15;60.20
21276;BME280;36472;52.170;20.884;2023-05-01T00:15:25;101054.66;;;8.15;60.19
21276;BME280;36472;52.170;20.884;2023-05-01T00:17:54;101049.69;;;8.09;59.47
21276;BME280;36472;52.170;20.884;2023-05-01T00:20:26;101050.47;;;8.11;60.62
21276;BME280;36472;52.170;20.884;2023-05-01T00:22:55;101044.44;;;8.09;61.12
21276;BME280;36472;52.170;20.884;2023-05-01T00:25:25;101056.75;;;8.07;60.80
21276;BME280;36472;52.170;20.884;2023-05-01T00:27:55;101050.75;;;8.05;61.46
21276;BME280;36472;52.170;20.884;2023-05-01T00:30:26;101049.97;;;8.03;61.32
21276;BME280;36472;52.170;20.884;2023-05-01T00:32:55;101054.41;;;8.01;60.94
21276;BME280;36472;52.170;20.884;2023-05-01T00:35:24;101052.78;;;7.98;60.97
21276;BME280;36472;52.170;20.884;2023-05-01T00:37:53;101050.34;;;7.94;60.60
21276;BME280;36472;52.170;20.884;2023-05-01T00:40:22;101060.13;;;7.90;60.57
21276;BME280;36472;52.170;20.884;2023-05-01T00:42:51;101053.31;;;7.86;61.46
21276;BME280;36472;52.170;20.884;2023-05-01T00:45:20;101052.63;;;7.82;61.59
21276;BME280;36472;52.170;20.884;2023-05-01T00:47:50;101054.47;;;7.79;61.22
21276;BME280;36472;52.170;20.884;2023-05-01T00:50:19;101055.41;;;7.78;61.72
21276;BME280;36472;52.170;20.884;2023-05-01T00:52:48;101059.81;;;7.77;62.19
21276;BME280;36472;52.170;20.884;2023-05-01T00:55:17;101055.66;;;7.72;61.66
21276;BME280;36472;52.170;20.884;2023-05-01T00:57:47;101054.84;;;7.71;62.01
21276;BME280;36472;52.170;20.884;2023-05-01T01:00:15;101061.03;;;7.68;62.64
21276;BME280;36472;52.170;20.884;2023-05-01T01:02:46;101068.16;;;7.65;62.97
21276;BME280;36472;52.170;20.884;2023-05-01T01:05:16;101066.53;;;7.62;62.63
21276;BME280;36472;52.170;20.884;2023-05-01T01:07:53;101055.41;;;7.57;61.58
21276;BME280;36472;52.170;20.884;2023-05-01T01:10:36;101067.00;;;7.52;62.18
21276;BME280;36472;52.170;20.884;2023-05-01T01:13:16;101066.41;;;7.45;62.36
21276;BME280;36472;52.170;20.884;2023-05-01T01:16:00;101070.09;;;7.39;63.46
21276;BME280;36472;52.170;20.884;2023-05-01T01:18:36;101070.38;;;7.33;63.50
21276;BME280;36472;52.170;20.884;2023-05-01T01:21:17;101068.94;;;7.26;63.75
21276;BME280;36472;52.170;20.884;2023-05-01T01:24:11;101070.84;;;7.21;63.74
21276;BME280;36472;52.170;20.884;2023-05-01T01:27:39;101079.84;;;7.14;63.69
21276;BME280;36472;52.170;20.884;2023-05-01T01:30:46;101081.03;;;7.06;63.94
21276;BME280;36472;52.170;20.884;2023-05-01T01:34:00;101084.84;;;6.98;65.25
21276;BME280;36472;52.170;20.884;2023-05-01T01:36:39;101086.00;;;6.90;65.64
21276;BME280;36472;52.170;20.884;2023-05-01T01:39:15;101084.47;;;6.85;65.11
21276;BME280;36472;52.170;20.884;2023-05-01T01:41:52;101081.38;;;6.75;65.24
21276;BME280;36472;52.170;20.884;2023-05-01T01:44:31;101088.47;;;6.71;65.66
21276;BME280;36472;52.170;20.884;2023-05-01T01:47:07;101087.88;;;6.65;65.99
21276;BME280;36472;52.170;20.884;2023-05-01T01:49:44;101087.13;;;6.61;66.32
21276;BME280;36472;52.170;20.884;2023-05-01T01:52:17;101084.69;;;6.57;66.33
21276;BME280;36472;52.170;20.884;2023-05-01T01:54:51;101087.47;;;6.52;66.83
21276;BME280;36472;52.170;20.884;2023-05-01T01:57:23;101085.78;;;6.51;67.68
21276;BME280;36472;52.170;20.884;2023-05-01T01:59:54;101080.56;;;6.51;67.93
21276;BME280;36472;52.170;20.884;2023-05-01T02:02:26;101080.59;;;6.49;68.36
21276;BME280;36472;52.170;20.884;2023-05-01T02:04:58;101080.72;;;6.46;68.19
21276;BME280;36472;52.170;20.884;2023-05-01T02:07:29;101078.38;;;6.39;67.75
21276;BME280;36472;52.170;20.884;2023-05-01T02:10:00;101091.41;;;6.39;67.84
21276;BME280;36472;52.170;20.884;2023-05-01T02:12:32;101085.34;;;6.38;68.58
21276;BME280;36472;52.170;20.884;2023-05-01T02:15:02;101075.91;;;6.35;68.55
21276;BME280;36472;52.170;20.884;2023-05-01T02:17:35;101082.22;;;6.28;67.98
21276;BME280;36472;52.170;20.884;2023-05-01T02:20:09;101084.03;;;6.26;67.49
21276;BME280;36472;52.170;20.884;2023-05-01T02:22:40;101081.78;;;6.17;67.88
21276;BME280;36472;52.170;20.884;2023-05-01T02:25:11;101073.25;;;6.12;68.28
21276;BME280;36472;52.170;20.884;2023-05-01T02:27:47;101074.22;;;6.09;68.94
21276;BME280;36472;52.170;20.884;2023-05-01T02:30:18;101073.56;;;6.03;68.81
21276;BME280;36472;52.170;20.884;2023-05-01T02:32:47;101073.72;;;5.99;68.97
21276;BME280;36472;52.170;20.884;2023-05-01T02:35:18;101072.00;;;5.98;68.76
21276;BME280;36472;52.170;20.884;2023-05-01T02:37:48;101073.00;;;5.94;68.38
21276;BME280;36472;52.170;20.884;2023-05-01T02:40:18;101073.03;;;5.93;68.26
21276;BME280;36472;52.170;20.884;2023-05-01T02:42:50;101077.47;;;5.89;68.33
21276;BME280;36472;52.170;20.884;2023-05-01T02:45:23;101081.72;;;5.93;69.62
21276;BME280;36472;52.170;20.884;2023-05-01T02:47:56;101069.59;;;5.91;70.24
21276;BME280;36472;52.170;20.884;2023-05-01T02:50:29;101073.97;;;5.90;70.57
21276;BME280;36472;52.170;20.884;2023-05-01T02:53:00;101071.31;;;5.92;70.30
21276;BME280;36472;52.170;20.884;2023-05-01T02:55:56;101077.47;;;5.89;70.31
21276;BME280;36472;52.170;20.884;2023-05-01T02:58:29;101075.69;;;5.91;70.35
21276;BME280;36472;52.170;20.884;2023-05-01T03:00:58;101075.00;;;5.86;69.83
21276;BME280;36472;52.170;20.884;2023-05-01T03:03:27;101090.66;;;5.86;69.69
21276;BME280;36472;52.170;20.884;2023-05-01T03:05:58;101080.22;;;5.86;70.46
21276;BME280;36472;52.170;20.884;2023-05-01T03:08:27;101077.66;;;5.85;70.54
21276;BME280;36472;52.170;20.884;2023-05-01T03:10:55;101080.47;;;5.78;70.50
21276;BME280;36472;52.170;20.884;2023-05-01T03:13:24;101082.38;;;5.73;69.69
21276;BME280;36472;52.170;20.884;2023-05-01T03:15:54;101077.16;;;5.73;69.63
21276;BME280;36472;52.170;20.884;2023-05-01T03:18:23;101080.84;;;5.68;70.26
21276;BME280;36472;52.170;20.884;2023-05-01T03:20:52;101070.63;;;5.61;70.44
21276;BME280;36472;52.170;20.884;2023-05-01T03:23:23;101074.25;;;5.57;70.64
21276;BME280;36472;52.170;20.884;2023-05-01T03:25:51;101069.97;;;5.55;70.14
21276;BME280;36472;52.170;20.884;2023-05-01T03:28:22;101084.81;;;5.53;70.50
21276;BME280;36472;52.170;20.884;2023-05-01T03:30:52;101075.22;;;5.53;70.36
21276;BME280;36472;52.170;20.884;2023-05-01T03:33:21;101069.03;;;5.57;71.23
21276;BME280;36472;52.170;20.884;2023-05-01T03:35:59;101070.66;;;5.60;71.65
21276;BME280;36472;52.170;20.884;2023-05-01T03:38:32;101070.56;;;5.63;72.52
21276;BME280;36472;52.170;20.884;2023-05-01T03:41:10;101076.63;;;5.63;72.84
21276;BME280;36472;52.170;20.884;2023-05-01T03:44:14;101072.34;;;5.62;73.48
21276;BME280;36472;52.170;20.884;2023-05-01T03:46:44;101077.41;;;5.67;74.18
21276;BME280;36472;52.170;20.884;2023-05-01T03:49:19;101068.66;;;5.68;74.47
21276;BME280;36472;52.170;20.884;2023-05-01T03:51:50;101071.13;;;5.73;74.19
21276;BME280;36472;52.170;20.884;2023-05-01T03:54:20;101076.09;;;5.79;75.29
21276;BME280;36472;52.170;20.884;2023-05-01T03:57:16;101076.69;;;5.87;74.42
21276;BME280;36472;52.170;20.884;2023-05-01T03:59:47;101075.69;;;5.91;74.56
21276;BME280;36472;52.170;20.884;2023-05-01T04:02:18;101072.84;;;5.99;74.00
21276;BME280;36472;52.170;20.884;2023-05-01T04:04:47;101075.28;;;6.04;74.23
21276;BME280;36472;52.170;20.884;2023-05-01T04:07:16;101078.59;;;6.09;72.59
21276;BME280;36472;52.170;20.884;2023-05-01T04:09:49;101075.00;;;6.11;71.86
21276;BME280;36472;52.170;20.884;2023-05-01T04:12:18;101079.13;;;6.18;71.40
21276;BME280;36472;52.170;20.884;2023-05-01T04:14:47;101084.03;;;6.26;70.82
21276;BME280;36472;52.170;20.884;2023-05-01T04:17:16;101079.34;;;6.36;70.43
21276;BME280;36472;52.170;20.884;2023-05-01T04:19:45;101079.06;;;6.44;70.45
21276;BME280;36472;52.170;20.884;2023-05-01T04:22:14;101076.28;;;6.48;69.91
21276;BME280;36472;52.170;20.884;2023-05-01T04:24:44;101078.41;;;6.61;69.87
21276;BME280;36472;52.170;20.884;2023-05-01T04:27:14;101079.91;;;6.68;68.90
21276;BME280;36472;52.170;20.884;2023-05-01T04:29:44;101076.09;;;6.77;68.43
21276;BME280;36472;52.170;20.884;2023-05-01T04:32:13;101082.66;;;6.87;68.91
21276;BME280;36472;52.170;20.884;2023-05-01T04:34:43;101079.00;;;6.91;68.79
21276;BME280;36472;52.170;20.884;2023-05-01T04:37:12;101080.47;;;6.98;68.05
21276;BME280;36472;52.170;20.884;2023-05-01T04:39:41;101078.41;;;7.06;67.89
21276;BME280;36472;52.170;20.884;2023-05-01T04:42:11;101086.81;;;7.15;66.59
21276;BME280;36472;52.170;20.884;2023-05-01T04:44:41;101080.34;;;7.23;67.06
21276;BME280;36472;52.170;20.884;2023-05-01T04:47:10;101083.63;;;7.28;66.51
21276;BME280;36472;52.170;20.884;2023-05-01T04:49:39;101075.34;;;7.39;65.81
21276;BME280;36472;52.170;20.884;2023-05-01T04:52:08;101075.75;;;7.51;65.68
21276;BME280;36472;52.170;20.884;2023-05-01T04:54:50;101081.41;;;7.62;64.69
21276;BME280;36472;52.170;20.884;2023-05-01T04:57:19;101076.00;;;7.65;64.14
21276;BME280;36472;52.170;20.884;2023-05-01T04:59:50;101079.94;;;7.75;62.96
21276;BME280;36472;52.170;20.884;2023-05-01T05:02:19;101071.72;;;7.84;61.75
21276;BME280;36472;52.170;20.884;2023-05-01T05:04:48;101074.84;;;7.93;61.05
21276;BME280;36472;52.170;20.884;2023-05-01T05:07:20;101069.13;;;8.03;61.45
21276;BME280;36472;52.170;20.884;2023-05-01T05:10:12;101071.13;;;8.17;60.13
21276;BME280;36472;52.170;20.884;2023-05-01T05:12:57;101069.69;;;8.31;60.35
21276;BME280;36472;52.170;20.884;2023-05-01T05:15:28;101069.47;;;8.35;59.12
21276;BME280;36472;52.170;20.884;2023-05-01T05:17:57;101070.56;;;8.50;58.19
21276;BME280;36472;52.170;20.884;2023-05-01T05:20:27;101071.06;;;8.58;57.02
21276;BME280;36472;52.170;20.884;2023-05-01T05:22:56;101066.97;;;8.72;56.14
21276;BME280;36472;52.170;20.884;2023-05-01T05:25:25;101064.84;;;8.80;55.62
21276;BME280;36472;52.170;20.884;2023-05-01T05:27:54;101077.91;;;8.99;55.30
21276;BME280;36472;52.170;20.884;2023-05-01T05:30:23;101070.06;;;9.16;54.61
21276;BME280;36472;52.170;20.884;2023-05-01T05:32:53;101067.72;;;9.29;53.83
21276;BME280;36472;52.170;20.884;2023-05-01T05:35:22;101075.53;;;9.48;52.40
21276;BME280;36472;52.170;20.884;2023-05-01T05:37:52;101065.22;;;9.79;51.84
21276;BME280;36472;52.170;20.884;2023-05-01T05:40:22;101069.31;;;10.02;50.44
21276;BME280;36472;52.170;20.884;2023-05-01T05:42:56;101068.31;;;10.04;48.81
21276;BME280;36472;52.170;20.884;2023-05-01T05:45:27;101071.25;;;10.32;48.43
21276;BME280;36472;52.170;20.884;2023-05-01T05:47:58;101061.47;;;10.51;49.23
21276;BME280;36472;52.170;20.884;2023-05-01T05:50:30;101075.47;;;10.83;48.13
21276;BME280;36472;52.170;20.884;2023-05-01T05:52:59;101073.19;;;10.93;45.92
21276;BME280;36472;52.170;20.884;2023-05-01T05:55:28;101079.09;;;11.13;46.52
21276;BME280;36472;52.170;20.884;2023-05-01T05:58:04;101078.63;;;11.36;46.72
21276;BME280;36472;52.170;20.884;2023-05-01T06:00:34;101074.94;;;11.55;44.50
21276;BME280;36472;52.170;20.884;2023-05-01T06:03:06;101075.41;;;11.62;43.95
21276;BME280;36472;52.170;20.884;2023-05-01T06:05:36;101079.97;;;11.88;44.22
21276;BME280;36472;52.170;20.884;2023-05-01T06:08:04;101074.09;;;11.99;44.05
21276;BME280;36472;52.170;20.884;2023-05-01T06:10:33;101077.31;;;11.88;42.50
21276;BME280;36472;52.170;20.884;2023-05-01T06:13:02;101072.69;;;12.08;41.31
21276;BME280;36472;52.170;20.884;2023-05-01T06:15:42;101080.38;;;11.96;41.08
21276;BME280;36472;52.170;20.884;2023-05-01T06:18:13;101072.03;;;12.19;42.56
21276;BME280;36472;52.170;20.884;2023-05-01T06:20:43;101080.13;;;12.44;42.27
21276;BME280;36472;52.170;20.884;2023-05-01T06:23:12;101078.06;;;12.35;41.21
21276;BME280;36472;52.170;20.884;2023-05-01T06:26:05;101074.94;;;12.43;40.39
21276;BME280;36472;52.170;20.884;2023-05-01T06:28:34;101080.03;;;12.46;40.21
21276;BME280;36472;52.170;20.884;2023-05-01T06:31:04;101076.63;;;12.58;39.59
21276;BME280;36472;52.170;20.884;2023-05-01T06:33:38;101086.00;;;12.77;40.17
21276;BME280;36472;52.170;20.884;2023-05-01T06:36:21;101081.44;;;12.93;39.51
21276;BME280;36472;52.170;20.884;2023-05-01T06:38:50;101091.47;;;13.15;39.58
21276;BME280;36472;52.170;20.884;2023-05-01T06:41:19;101083.78;;;13.25;39.40
21276;BME280;36472;52.170;20.884;2023-05-01T06:43:48;101085.53;;;13.39;39.46
21276;BME280;36472;52.170;20.884;2023-05-01T06:46:17;101082.84;;;13.53;38.78
21276;BME280;36472;52.170;20.884;2023-05-01T06:48:48;101079.50;;;13.77;38.81
21276;BME280;36472;52.170;20.884;2023-05-01T06:51:17;101075.16;;;13.89;38.33
21276;BME280;36472;52.170;20.884;2023-05-01T06:53:45;101073.78;;;13.96;37.50
21276;BME280;36472;52.170;20.884;2023-05-01T06:56:14;101065.22;;;14.05;36.94
21276;BME280;36472;52.170;20.884;2023-05-01T06:58:43;101071.22;;;14.33;36.99
21276;BME280;36472;52.170;20.884;2023-05-01T07:01:12;101069.19;;;14.36;37.16
21276;BME280;36472;52.170;20.884;2023-05-01T07:03:41;101068.16;;;14.26;37.31
21276;BME280;36472;52.170;20.884;2023-05-01T07:06:11;101069.53;;;14.19;37.19
21276;BME280;36472;52.170;20.884;2023-05-01T07:08:40;101062.06;;;14.13;37.19
21276;BME280;36472;52.170;20.884;2023-05-01T07:11:09;101071.88;;;14.11;37.57
21276;BME280;36472;52.170;20.884;2023-05-01T07:13:38;101062.50;;;13.94;37.65
21276;BME280;36472;52.170;20.884;2023-05-01T07:16:07;101056.88;;;13.86;37.70
21276;BME280;36472;52.170;20.884;2023-05-01T07:18:36;101061.00;;;14.02;37.74
21276;BME280;36472;52.170;20.884;2023-05-01T07:21:05;101062.91;;;14.13;37.42
21276;BME280;36472;52.170;20.884;2023-05-01T07:23:37;101053.91;;;13.90;38.00
21276;BME280;36472;52.170;20.884;2023-05-01T07:26:06;101059.31;;;13.89;38.11
21276;BME280;36472;52.170;20.884;2023-05-01T07:28:35;101065.34;;;13.91;38.21
21276;BME280;36472;52.170;20.884;2023-05-01T07:31:04;101057.59;;;14.00;37.80
21276;BME280;36472;52.170;20.884;2023-05-01T07:33:33;101062.88;;;14.00;37.45
21276;BME280;36472;52.170;20.884;2023-05-01T07:36:03;101061.31;;;13.98;37.23
21276;BME280;36472;52.170;20.884;2023-05-01T07:38:31;101066.50;;;13.99;38.41
21276;BME280;36472;52.170;20.884;2023-05-01T07:41:02;101065.84;;;14.09;37.67
21276;BME280;36472;52.170;20.884;2023-05-01T07:43:31;101059.31;;;14.14;38.45
21276;BME280;36472;52.170;20.884;2023-05-01T07:46:00;101059.69;;;14.21;38.20
21276;BME280;36472;52.170;20.884;2023-05-01T07:48:29;101062.34;;;14.34;38.01
21276;BME280;36472;52.170;20.884;2023-05-01T07:51:01;101064.59;;;14.01;37.70
21276;BME280;36472;52.170;20.884;2023-05-01T07:53:30;101060.25;;;14.00;37.92
21276;BME280;36472;52.170;20.884;2023-05-01T07:56:08;101055.81;;;14.27;38.05
21276;BME280;36472;52.170;20.884;2023-05-01T07:58:37;101059.34;;;14.51;36.92
21276;BME280;36472;52.170;20.884;2023-05-01T08:01:07;101055.50;;;14.68;37.18
21276;BME280;36472;52.170;20.884;2023-05-01T08:03:36;101056.53;;;14.78;36.58
21276;BME280;36472;52.170;20.884;2023-05-01T08:06:06;101054.72;;;14.79;37.31
21276;BME280;36472;52.170;20.884;2023-05-01T08:08:34;101050.09;;;14.83;36.81
21276;BME280;36472;52.170;20.884;2023-05-01T08:11:03;101058.41;;;14.89;37.36
21276;BME280;36472;52.170;20.884;2023-05-01T08:13:33;101061.94;;;15.01;37.62
21276;BME280;36472;52.170;20.884;2023-05-01T08:16:04;101050.72;;;15.22;37.68
21276;BME280;36472;52.170;20.884;2023-05-01T08:18:32;101059.06;;;15.28;36.14
21276;BME280;36472;52.170;20.884;2023-05-01T08:21:01;101054.69;;;15.16;37.51
21276;BME280;36472;52.170;20.884;2023-05-01T08:23:30;101058.63;;;15.34;37.10
21276;BME280;36472;52.170;20.884;2023-05-01T08:25:59;101059.28;;;15.49;37.03
21276;BME280;36472;52.170;20.884;2023-05-01T08:28:28;101058.34;;;15.62;37.63
21276;BME280;36472;52.170;20.884;2023-05-01T08:30:58;101056.25;;;15.54;36.54
21276;BME280;36472;52.170;20.884;2023-05-01T08:33:27;101054.22;;;15.58;37.82
21276;BME280;36472;52.170;20.884;2023-05-01T08:35:56;101058.34;;;15.73;35.78
21276;BME280;36472;52.170;20.884;2023-05-01T08:38:25;101047.31;;;15.44;36.40
21276;BME280;36472;52.170;20.884;2023-05-01T08:40:54;101058.28;;;15.39;36.47
21276;BME280;36472;52.170;20.884;2023-05-01T08:43:26;101054.81;;;15.50;36.05
21276;BME280;36472;52.170;20.884;2023-05-01T08:45:58;101055.34;;;15.66;35.96
21276;BME280;36472;52.170;20.884;2023-05-01T08:48:30;101053.63;;;15.65;36.06
21276;BME280;36472;52.170;20.884;2023-05-01T08:51:02;101060.38;;;15.69;36.29
21276;BME280;36472;52.170;20.884;2023-05-01T08:53:33;101052.91;;;15.75;35.12
21276;BME280;36472;52.170;20.884;2023-05-01T08:56:05;101059.00;;;15.77;35.21
21276;BME280;36472;52.170;20.884;2023-05-01T08:58:37;101055.34;;;15.66;35.09
21276;BME280;36472;52.170;20.884;2023-05-01T09:01:12;101047.56;;;15.87;35.98
21276;BME280;36472;52.170;20.884;2023-05-01T09:03:43;101046.63;;;16.11;35.27
21276;BME280;36472;52.170;20.884;2023-05-01T09:06:13;101045.31;;;16.28;34.33
21276;BME280;36472;52.170;20.884;2023-05-01T09:08:42;101039.97;;;16.39;34.78
21276;BME280;36472;52.170;20.884;2023-05-01T09:11:11;101042.59;;;16.62;35.12
21276;BME280;36472;52.170;20.884;2023-05-01T09:13:40;101034.38;;;16.76;34.44
21276;BME280;36472;52.170;20.884;2023-05-01T09:16:10;101040.09;;;17.04;34.08
21276;BME280;36472;52.170;20.884;2023-05-01T09:18:40;101046.28;;;17.26;33.53
21276;BME280;36472;52.170;20.884;2023-05-01T09:21:09;101043.63;;;17.47;31.74
21276;BME280;36472;52.170;20.884;2023-05-01T09:23:38;101038.09;;;17.17;32.81
21276;BME280;36472;52.170;20.884;2023-05-01T09:26:07;101025.66;;;17.81;31.69
21276;BME280;36472;52.170;20.884;2023-05-01T09:28:40;101029.38;;;18.81;30.69
21276;BME280;36472;52.170;20.884;2023-05-01T09:31:23;101023.19;;;19.49;29.01
21276;BME280;36472;52.170;20.884;2023-05-01T09:33:57;101018.19;;;19.36;29.40
21276;BME280;36472;52.170;20.884;2023-05-01T09:36:29;101027.09;;;19.84;29.58
21276;BME280;36472;52.170;20.884;2023-05-01T09:38:59;101022.34;;;20.05;30.49
21276;BME280;36472;52.170;20.884;2023-05-01T09:41:29;101017.53;;;20.18;28.41
21276;BME280;36472;52.170;20.884;2023-05-01T09:43:59;101021.84;;;20.29;28.93
21276;BME280;36472;52.170;20.884;2023-05-01T09:46:40;101011.50;;;20.72;27.91
21276;BME280;36472;52.170;20.884;2023-05-01T09:49:10;101017.38;;;20.93;27.30
21276;BME280;36472;52.170;20.884;2023-05-01T09:51:39;101020.13;;;20.84;27.15
21276;BME280;36472;52.170;20.884;2023-05-01T09:54:18;101009.53;;;20.74;27.55
21276;BME280;36472;52.170;20.884;2023-05-01T09:56:48;101012.47;;;20.89;27.07
21276;BME280;36472;52.170;20.884;2023-05-01T09:59:19;101007.00;;;21.08;26.01
21276;BME280;36472;52.170;20.884;2023-05-01T10:01:49;101005.81;;;21.11;25.92
21276;BME280;36472;52.170;20.884;2023-05-01T10:04:29;101007.28;;;21.05;26.68
21276;BME280;36472;52.170;20.884;2023-05-01T10:07:10;101008.06;;;20.80;26.33
21276;BME280;36472;52.170;20.884;2023-05-01T10:09:39;101001.81;;;21.07;25.79
21276;BME280;36472;52.170;20.884;2023-05-01T10:12:09;100991.59;;;21.46;24.68
21276;BME280;36472;52.170;20.884;2023-05-01T10:14:50;100991.19;;;21.59;24.91
21276;BME280;36472;52.170;20.884;2023-05-01T10:17:21;100994.19;;;21.91;24.34
21276;BME280;36472;52.170;20.884;2023-05-01T10:19:50;100979.50;;;22.37;24.96
21276;BME280;36472;52.170;20.884;2023-05-01T10:22:19;100979.84;;;22.42;24.05
21276;BME280;36472;52.170;20.884;2023-05-01T10:24:48;100973.97;;;22.39;23.79
21276;BME280;36472;52.170;20.884;2023-05-01T10:27:19;100972.19;;;22.56;24.26
21276;BME280;36472;52.170;20.884;2023-05-01T10:29:52;100973.50;;;22.01;23.30
21276;BME280;36472;52.170;20.884;2023-05-01T10:32:23;100969.50;;;21.44;23.48
21276;BME280;36472;52.170;20.884;2023-05-01T10:34:57;100966.97;;;21.43;24.84
21276;BME280;36472;52.170;20.884;2023-05-01T10:37:34;100973.59;;;21.30;23.18
21276;BME280;36472;52.170;20.884;2023-05-01T10:40:43;100968.13;;;21.14;23.29
21276;BME280;36472;52.170;20.884;2023-05-01T10:43:20;100961.78;;;22.36;23.85
21276;BME280;36472;52.170;20.884;2023-05-01T10:45:53;100959.66;;;22.73;22.66
21276;BME280;36472;52.170;20.884;2023-05-01T10:49:03;100954.81;;;23.26;22.05
21276;BME280;36472;52.170;20.884;2023-05-01T10:51:31;100947.59;;;23.34;22.41
21276;BME280;36472;52.170;20.884;2023-05-01T10:54:28;100949.03;;;23.53;21.61
21276;BME280;36472;52.170;20.884;2023-05-01T10:56:59;100949.03;;;23.62;21.48
21276;BME280;36472;52.170;20.884;2023-05-01T11:00:19;100942.59;;;23.23;23.27
21276;BME280;36472;52.170;20.884;2023-05-01T11:02:48;100943.59;;;22.97;21.46
21276;BME280;36472;52.170;20.884;2023-05-01T11:05:17;100936.03;;;23.18;21.82
21276;BME280;36472;52.170;20.884;2023-05-01T11:08:29;100939.09;;;23.14;23.15
21276;BME280;36472;52.170;20.884;2023-05-01T11:11:46;100936.72;;;22.95;22.72
21276;BME280;36472;52.170;20.884;2023-05-01T11:14:18;100926.31;;;22.84;23.53
21276;BME280;36472;52.170;20.884;2023-05-01T11:16:48;100928.69;;;22.70;23.20
21276;BME280;36472;52.170;20.884;2023-05-01T11:19:45;100917.44;;;22.75;23.61
21276;BME280;36472;52.170;20.884;2023-05-01T11:22:19;100922.66;;;23.01;23.88
21276;BME280;36472;52.170;20.884;2023-05-01T11:24:48;100919.31;;;23.07;22.87
21276;BME280;36472;52.170;20.884;2023-05-01T11:27:17;100909.38;;;23.32;23.62
21276;BME280;36472;52.170;20.884;2023-05-01T11:29:48;100907.16;;;23.44;23.13
21276;BME280;36472;52.170;20.884;2023-05-01T11:32:27;100910.06;;;23.74;23.41
21276;BME280;36472;52.170;20.884;2023-05-01T11:34:57;100899.75;;;23.55;22.62
21276;BME280;36472;52.170;20.884;2023-05-01T11:37:40;100900.50;;;23.32;22.62
21276;BME280;36472;52.170;20.884;2023-05-01T11:40:20;100896.25;;;23.54;22.59
21276;BME280;36472;52.170;20.884;2023-05-01T11:42:58;100900.69;;;23.22;23.00
21276;BME280;36472;52.170;20.884;2023-05-01T11:45:29;100892.78;;;23.37;23.96
21276;BME280;36472;52.170;20.884;2023-05-01T11:48:00;100896.44;;;23.92;21.83
21276;BME280;36472;52.170;20.884;2023-05-01T11:50:32;100882.72;;;23.87;22.11
21276;BME280;36472;52.170;20.884;2023-05-01T11:53:09;100882.91;;;23.77;22.40
21276;BME280;36472;52.170;20.884;2023-05-01T11:55:39;100886.72;;;23.43;23.20
21276;BME280;36472;52.170;20.884;2023-05-01T11:58:08;100879.06;;;22.99;22.85
21276;BME280;36472;52.170;20.884;2023-05-01T12:00:40;100870.72;;;22.28;22.79
21276;BME280;36472;52.170;20.884;2023-05-01T12:03:12;100877.66;;;21.88;23.64
21276;BME280;36472;52.170;20.884;2023-05-01T12:05:43;100878.31;;;21.47;24.33
21276;BME280;36472;52.170;20.884;2023-05-01T12:08:15;100879.72;;;20.81;24.69
21276;BME280;36472;52.170;20.884;2023-05-01T12:10:47;100880.09;;;20.50;24.19
21276;BME280;36472;52.170;20.884;2023-05-01T12:13:17;100866.75;;;20.14;24.46
21276;BME280;36472;52.170;20.884;2023-05-01T12:15:48;100865.19;;;19.66;24.16
21276;BME280;36472;52.170;20.884;2023-05-01T12:18:19;100857.69;;;19.42;25.22
21276;BME280;36472;52.170;20.884;2023-05-01T12:20:50;100860.16;;;19.25;23.87
21276;BME280;36472;52.170;20.884;2023-05-01T12:23:30;100857.78;;;19.13;24.46
21276;BME280;36472;52.170;20.884;2023-05-01T12:25:59;100848.56;;;18.97;25.50
21276;BME280;36472;52.170;20.884;2023-05-01T12:28:30;100843.66;;;19.02;25.67
21276;BME280;36472;52.170;20.884;2023-05-01T12:31:02;100838.53;;;18.91;25.17
21276;BME280;36472;52.170;20.884;2023-05-01T12:33:33;100839.63;;;18.88;26.00
21276;BME280;36472;52.170;20.884;2023-05-01T12:36:09;100840.44;;;18.99;28.27
21276;BME280;36472;52.170;20.884;2023-05-01T12:38:39;100830.13;;;18.86;26.80
21276;BME280;36472;52.170;20.884;2023-05-01T12:41:07;100833.75;;;18.85;27.04
21276;BME280;36472;52.170;20.884;2023-05-01T12:43:38;100823.09;;;18.85;26.85
21276;BME280;36472;52.170;20.884;2023-05-01T12:46:14;100830.66;;;18.80;27.48
21276;BME280;36472;52.170;20.884;2023-05-01T12:48:44;100819.16;;;18.79;26.96
21276;BME280;36472;52.170;20.884;2023-05-01T12:51:18;100823.13;;;18.65;26.56
21276;BME280;36472;52.170;20.884;2023-05-01T12:53:48;100815.84;;;18.67;28.07
21276;BME280;36472;52.170;20.884;2023-05-01T12:56:23;100817.50;;;18.68;26.81
21276;BME280;36472;52.170;20.884;2023-05-01T12:58:52;100812.16;;;18.68;26.19
21276;BME280;36472;52.170;20.884;2023-05-01T13:01:25;100804.59;;;18.74;26.92
21276;BME280;36472;52.170;20.884;2023-05-01T13:03:56;100801.22;;;18.81;26.51
21276;BME280;36472;52.170;20.884;2023-05-01T13:06:31;100796.41;;;19.04;26.25
21276;BME280;36472;52.170;20.884;2023-05-01T13:09:08;100786.63;;;18.95;25.67
21276;BME280;36472;52.170;20.884;2023-05-01T13:11:37;100784.66;;;18.97;26.78
21276;BME280;36472;52.170;20.884;2023-05-01T13:14:07;100787.06;;;18.91;25.84